createdAt,value
2019-01-24T00:00:40.852Z,77.93
2019-01-24T00:03:08.083Z,80.93
2019-01-24T00:05:35.354Z,68.60
2019-01-24T00:08:02.703Z,66.43
2019-01-24T00:10:30.052Z,60.13
2019-01-24T00:12:57.332Z,66.73
2019-01-24T00:15:24.596Z,68.07
2019-01-24T00:17:51.810Z,69.50
2019-01-24T00:20:19.165Z,68.10
2019-01-24T00:22:46.380Z,83.97
2019-01-24T00:25:13.593Z,70.30
2019-01-24T00:27:40.850Z,67.53
2019-01-24T00:30:09.029Z,62.63
2019-01-24T00:32:36.297Z,64.63
2019-01-24T00:35:04.149Z,70.03
2019-01-24T00:37:31.374Z,64.73
2019-01-24T00:39:58.596Z,66.23
2019-01-24T00:42:25.798Z,72.77
2019-01-24T00:44:53.071Z,79.67
2019-01-24T00:47:20.271Z,78.60
2019-01-24T00:49:47.491Z,78.77
2019-01-24T00:52:14.779Z,82.60
2019-01-24T00:54:42.018Z,75.67
2019-01-24T00:57:09.219Z,67.60
2019-01-24T00:59:36.783Z,69.87
2019-01-24T01:02:04.072Z,81.60
2019-01-24T01:04:31.483Z,76.83
2019-01-24T01:06:58.790Z,71.37
2019-01-24T01:09:25.984Z,72.27
2019-01-24T01:11:53.195Z,72.40
2019-01-24T01:14:20.424Z,70.97
2019-01-24T01:16:47.745Z,70.80
2019-01-24T01:19:14.940Z,85.40
2019-01-24T01:21:42.175Z,81.57
2019-01-24T01:24:09.557Z,70.80
2019-01-24T01:26:36.811Z,73.47
2019-01-24T01:29:04.370Z,68.97
2019-01-24T01:31:31.589Z,79.37
2019-01-24T01:33:58.911Z,85.87
2019-01-24T01:36:26.174Z,73.80
2019-01-24T01:38:53.408Z,88.53
2019-01-24T01:41:20.684Z,86.83
2019-01-24T01:43:47.927Z,86.80
2019-01-24T01:46:15.130Z,84.80
2019-01-24T01:48:42.455Z,86.73
2019-01-24T01:51:09.697Z,90.00
2019-01-24T01:53:36.926Z,91.40
2019-01-24T01:56:04.196Z,91.00
2019-01-24T01:58:31.415Z,84.53
2019-01-24T02:00:58.654Z,79.63
2019-01-24T02:03:25.868Z,88.90
2019-01-24T02:05:53.113Z,83.80
2019-01-24T02:08:20.383Z,87.67
2019-01-24T02:10:47.669Z,87.47
2019-01-24T02:13:14.890Z,86.27
2019-01-24T02:15:42.102Z,89.67
2019-01-24T02:18:09.563Z,88.53
2019-01-24T02:20:36.771Z,93.30
2019-01-24T02:23:04.400Z,91.90
2019-01-24T02:25:31.766Z,92.63
2019-01-24T02:27:58.994Z,83.37
2019-01-24T02:30:27.871Z,88.97
2019-01-24T02:32:55.598Z,85.93
2019-01-24T02:35:22.808Z,98.80
2019-01-24T02:37:50.133Z,86.37
2019-01-24T02:40:17.413Z,70.70
2019-01-24T02:42:44.734Z,84.73
2019-01-24T02:45:13.363Z,93.40
2019-01-24T02:47:40.603Z,76.73
2019-01-24T02:50:10.114Z,77.10
2019-01-24T02:52:37.358Z,63.30
2019-01-24T02:55:06.380Z,80.30
2019-01-24T02:57:33.628Z,84.00
2019-01-24T03:00:00.862Z,75.30
2019-01-24T03:02:28.107Z,76.60
2019-01-24T03:04:57.046Z,93.93
2019-01-24T03:07:24.504Z,89.60
2019-01-24T03:09:51.732Z,86.40
2019-01-24T03:12:19.019Z,91.33
2019-01-24T03:14:46.455Z,98.97
2019-01-24T03:17:13.675Z,90.27
2019-01-24T03:19:40.926Z,94.30
2019-01-24T03:22:08.150Z,89.50
2019-01-24T03:24:38.340Z,87.83
2019-01-24T03:27:05.879Z,96.40
2019-01-24T03:29:33.143Z,84.40
2019-01-24T03:32:00.377Z,70.40
2019-01-24T03:34:27.635Z,90.73
2019-01-24T03:36:54.852Z,72.00
2019-01-24T03:39:22.109Z,65.60
2019-01-24T03:41:49.401Z,66.83
2019-01-24T03:44:16.764Z,82.13
2019-01-24T03:46:44.019Z,76.27
2019-01-24T03:49:11.406Z,71.23
2019-01-24T03:51:38.697Z,64.43
2019-01-24T03:54:05.934Z,66.60
2019-01-24T03:56:33.373Z,84.50
2019-01-24T03:59:00.584Z,84.13
2019-01-24T04:01:27.813Z,76.63
2019-01-24T04:03:55.182Z,89.60
2019-01-24T04:06:22.428Z,70.70
2019-01-24T04:08:49.635Z,81.47
2019-01-24T04:11:16.892Z,64.47
2019-01-24T04:13:44.161Z,66.87
2019-01-24T04:16:11.380Z,71.93
2019-01-24T04:18:38.615Z,70.10
2019-01-24T04:21:05.848Z,72.73
2019-01-24T04:23:33.078Z,82.40
2019-01-24T04:26:00.431Z,82.33
2019-01-24T04:28:27.680Z,80.87
2019-01-24T04:30:55.134Z,75.33
2019-01-24T04:33:22.360Z,72.60
2019-01-24T04:35:49.811Z,77.77
2019-01-24T04:38:17.011Z,82.50
2019-01-24T04:40:44.219Z,77.67
2019-01-24T04:43:11.461Z,76.37
2019-01-24T04:45:38.717Z,82.43
2019-01-24T04:48:05.997Z,76.57
2019-01-24T04:50:33.195Z,84.83
2019-01-24T04:53:00.451Z,73.73
2019-01-24T04:55:27.711Z,84.80
2019-01-24T04:57:55.199Z,76.60
2019-01-24T05:00:30.161Z,77.07
2019-01-24T05:02:57.487Z,68.90
2019-01-24T05:05:28.035Z,67.90
2019-01-24T05:07:54.426Z,77.83
2019-01-24T05:10:21.818Z,64.80
2019-01-24T05:12:49.055Z,62.77
2019-01-24T05:15:16.604Z,57.77
2019-01-24T05:17:43.884Z,70.63
2019-01-24T05:20:11.932Z,65.80
2019-01-24T05:22:39.151Z,70.67
2019-01-24T05:25:08.591Z,72.33
2019-01-24T05:27:35.804Z,70.70
2019-01-24T05:30:04.615Z,60.20
2019-01-24T05:32:31.866Z,61.03
2019-01-24T05:34:59.099Z,58.07
2019-01-24T05:37:26.346Z,66.37
2019-01-24T05:39:53.562Z,63.23
2019-01-24T05:42:20.880Z,61.93
2019-01-24T05:44:48.115Z,60.40
2019-01-24T05:47:15.330Z,64.50
2019-01-24T05:49:42.555Z,59.83
2019-01-24T05:52:09.843Z,65.07
2019-01-24T05:54:37.091Z,64.03
2019-01-24T05:57:04.338Z,60.23
2019-01-24T05:59:31.555Z,56.67
2019-01-24T06:01:59.400Z,75.63
2019-01-24T06:04:26.627Z,71.47
2019-01-24T06:06:53.844Z,72.17
2019-01-24T06:09:21.102Z,57.53
2019-01-24T06:11:48.569Z,68.57
2019-01-24T06:14:15.771Z,66.87
2019-01-24T06:16:43.194Z,61.63
2019-01-24T06:19:10.398Z,63.40
2019-01-24T06:21:37.603Z,58.70
2019-01-24T06:24:04.864Z,59.13
2019-01-24T06:26:32.122Z,64.77
2019-01-24T06:28:59.332Z,59.00
2019-01-24T06:31:26.612Z,67.43
2019-01-24T06:33:53.961Z,62.37
2019-01-24T06:36:21.168Z,64.13
2019-01-24T06:38:48.519Z,61.77
2019-01-24T06:41:15.750Z,62.53
2019-01-24T06:43:42.955Z,64.47
2019-01-24T06:46:10.194Z,71.33
2019-01-24T06:48:37.728Z,74.67
2019-01-24T06:51:04.940Z,74.23
2019-01-24T06:53:32.228Z,74.80
2019-01-24T06:55:59.481Z,60.70
2019-01-24T06:58:26.692Z,75.90
2019-01-24T07:00:53.909Z,69.80
2019-01-24T07:03:21.158Z,72.00
2019-01-24T07:05:48.630Z,69.17
2019-01-24T07:08:15.838Z,67.60
2019-01-24T07:10:43.065Z,74.30
2019-01-24T07:13:10.610Z,63.70
2019-01-24T07:15:38.727Z,73.67
2019-01-24T07:18:06.125Z,66.70
2019-01-24T07:20:33.327Z,64.37
2019-01-24T07:23:00.717Z,76.63
2019-01-24T07:25:28.335Z,77.57
2019-01-24T07:27:55.952Z,64.67
2019-01-24T07:30:23.192Z,68.63
2019-01-24T07:32:50.528Z,73.57
2019-01-24T07:35:17.722Z,70.43
2019-01-24T07:37:45.082Z,70.50
2019-01-24T07:40:13.935Z,67.40
2019-01-24T07:42:41.168Z,69.57
2019-01-24T07:45:13.259Z,66.20
2019-01-24T07:47:40.494Z,68.97
2019-01-24T07:50:09.203Z,72.87
2019-01-24T07:52:36.502Z,72.77
2019-01-24T07:55:04.018Z,74.80
2019-01-24T07:57:31.258Z,80.40
2019-01-24T07:59:58.512Z,83.17
2019-01-24T08:02:25.740Z,73.63
2019-01-24T08:04:52.936Z,73.70
2019-01-24T08:07:20.199Z,76.93
2019-01-24T08:09:50.334Z,78.40
2019-01-24T08:12:17.632Z,79.17
2019-01-24T08:14:46.503Z,75.90
2019-01-24T08:17:13.846Z,76.17
2019-01-24T08:19:41.080Z,80.00
2019-01-24T08:22:08.417Z,90.53
2019-01-24T08:24:35.671Z,75.17
2019-01-24T08:27:02.921Z,83.03
2019-01-24T08:29:30.154Z,91.23
2019-01-24T08:31:57.368Z,76.57
2019-01-24T08:34:24.615Z,85.93
2019-01-24T08:36:51.832Z,80.53
2019-01-24T08:39:21.982Z,87.03
2019-01-24T08:41:49.215Z,83.83
2019-01-24T08:44:16.472Z,89.67
2019-01-24T08:46:43.695Z,85.07
2019-01-24T08:49:10.964Z,81.53
2019-01-24T08:51:38.186Z,91.60
2019-01-24T08:54:05.450Z,82.37
2019-01-24T08:56:32.704Z,94.23
2019-01-24T08:58:59.907Z,88.53
2019-01-24T09:01:27.397Z,77.17
2019-01-24T09:03:54.654Z,81.13
2019-01-24T09:06:22.690Z,76.00
2019-01-24T09:08:51.749Z,91.37
2019-01-24T09:11:19.018Z,82.97
2019-01-24T09:13:46.196Z,91.13
2019-01-24T09:16:13.490Z,93.20
2019-01-24T09:18:40.725Z,84.73
2019-01-24T09:21:07.956Z,80.13
2019-01-24T09:23:35.170Z,87.43
2019-01-24T09:26:02.631Z,71.07
2019-01-24T09:28:29.865Z,95.13
2019-01-24T09:30:57.088Z,78.40
2019-01-24T09:33:24.324Z,85.87
2019-01-24T09:35:51.584Z,77.13
2019-01-24T09:38:18.810Z,90.73
2019-01-24T09:40:46.117Z,93.37
2019-01-24T09:43:13.351Z,79.73
2019-01-24T09:45:40.540Z,81.33
2019-01-24T09:48:08.134Z,80.80
2019-01-24T09:50:35.455Z,79.90
2019-01-24T09:53:02.896Z,76.67
2019-01-24T09:55:30.118Z,79.50
2019-01-24T09:57:57.344Z,91.33
2019-01-24T10:00:32.206Z,81.20
2019-01-24T10:02:59.721Z,93.23
2019-01-24T10:05:27.195Z,86.30
2019-01-24T10:07:54.608Z,87.97
2019-01-24T10:10:22.502Z,85.30
2019-01-24T10:12:50.461Z,91.47
2019-01-24T10:15:18.344Z,77.47
2019-01-24T10:17:45.591Z,79.60
2019-01-24T10:20:14.483Z,73.30
2019-01-24T10:22:41.823Z,74.80
2019-01-24T10:25:12.246Z,81.03
2019-01-24T10:27:39.570Z,97.10
2019-01-24T10:30:08.575Z,95.07
2019-01-24T10:32:35.937Z,72.03
2019-01-24T10:35:03.612Z,86.20
2019-01-24T10:37:32.800Z,78.90
2019-01-24T10:40:00.349Z,81.93
2019-01-24T10:42:27.750Z,87.60
2019-01-24T10:44:55.005Z,75.73
2019-01-24T10:47:22.224Z,75.87
2019-01-24T10:49:49.485Z,73.97
2019-01-24T10:52:16.678Z,75.43
2019-01-24T10:54:43.937Z,89.70
2019-01-24T10:57:11.239Z,93.30
2019-01-24T10:59:38.479Z,99.80
2019-01-24T11:02:05.699Z,92.10
2019-01-24T11:04:32.947Z,99.80
2019-01-24T11:07:00.155Z,94.50
2019-01-24T11:09:27.399Z,79.87
2019-01-24T11:11:54.672Z,77.97
2019-01-24T11:14:22.294Z,73.80
2019-01-24T11:16:49.482Z,78.33
2019-01-24T11:19:16.727Z,71.73
2019-01-24T11:21:44.011Z,72.73
2019-01-24T11:24:11.242Z,111.57
2019-01-24T11:26:38.481Z,88.67
2019-01-24T11:29:06.057Z,83.47
2019-01-24T11:31:33.477Z,92.70
2019-01-24T11:34:00.814Z,83.33
2019-01-24T11:36:28.078Z,81.13
2019-01-24T11:38:55.338Z,77.30
2019-01-24T11:41:22.543Z,83.30
2019-01-24T11:43:49.790Z,91.07
2019-01-24T11:46:17.215Z,89.17
2019-01-24T11:48:44.504Z,102.43
2019-01-24T11:51:11.740Z,85.00
2019-01-24T11:53:38.985Z,79.93
2019-01-24T11:56:07.567Z,80.43
2019-01-24T11:58:35.010Z,76.17
2019-01-24T12:01:02.213Z,81.20
2019-01-24T12:03:29.777Z,69.80
2019-01-24T12:05:57.027Z,84.77
2019-01-24T12:08:24.264Z,81.03
2019-01-24T12:10:51.498Z,88.53
2019-01-24T12:13:18.789Z,93.93
2019-01-24T12:15:46.011Z,78.97
2019-01-24T12:18:13.278Z,74.70
2019-01-24T12:20:40.539Z,77.53
2019-01-24T12:23:07.794Z,72.63
2019-01-24T12:25:35.060Z,84.37
2019-01-24T12:28:02.623Z,72.50
2019-01-24T12:30:31.879Z,68.63
2019-01-24T12:32:59.459Z,100.37
2019-01-24T12:35:26.867Z,69.33
2019-01-24T12:37:54.252Z,79.23
2019-01-24T12:40:21.508Z,86.17
2019-01-24T12:42:49.044Z,71.73
2019-01-24T12:45:18.715Z,73.17
2019-01-24T12:47:45.929Z,75.23
2019-01-24T12:50:14.627Z,84.53
2019-01-24T12:52:41.999Z,63.10
2019-01-24T12:55:10.309Z,66.47
2019-01-24T12:57:37.866Z,69.73
2019-01-24T13:00:08.273Z,74.80
2019-01-24T13:02:35.613Z,69.83
2019-01-24T13:05:03.657Z,78.70
2019-01-24T13:07:30.936Z,69.23
2019-01-24T13:09:58.220Z,63.73
2019-01-24T13:12:25.431Z,73.13
2019-01-24T13:14:52.635Z,69.13
2019-01-24T13:17:19.867Z,101.97
2019-01-24T13:19:47.110Z,77.33
2019-01-24T13:22:14.351Z,70.10
2019-01-24T13:24:41.557Z,76.63
2019-01-24T13:27:08.812Z,79.73
2019-01-24T13:29:36.099Z,85.10
2019-01-24T13:32:03.632Z,83.13
2019-01-24T13:34:30.987Z,85.30
2019-01-24T13:36:58.172Z,85.33
2019-01-24T13:39:25.552Z,101.47
2019-01-24T13:41:53.113Z,89.33
2019-01-24T13:44:20.364Z,72.73
2019-01-24T13:46:47.749Z,78.60
2019-01-24T13:49:15.101Z,89.57
2019-01-24T13:51:42.357Z,88.60
2019-01-24T13:54:09.571Z,78.97
2019-01-24T13:56:37.152Z,70.57
2019-01-24T13:59:04.482Z,66.47
2019-01-24T14:01:31.770Z,64.10
2019-01-24T14:04:13.132Z,67.60
2019-01-24T14:06:40.349Z,73.00
2019-01-24T14:09:09.344Z,71.97
2019-01-24T14:11:36.611Z,87.77
2019-01-24T14:14:04.912Z,87.23
2019-01-24T14:16:32.151Z,77.23
2019-01-24T14:18:59.540Z,89.47
2019-01-24T14:21:26.771Z,81.97
2019-01-24T14:23:54.002Z,69.23
2019-01-24T14:26:21.235Z,70.67
2019-01-24T14:28:48.448Z,71.70
2019-01-24T14:31:16.089Z,67.93
2019-01-24T14:33:43.302Z,94.20
2019-01-24T14:36:10.531Z,78.23
2019-01-24T14:38:37.883Z,78.63
2019-01-24T14:41:05.129Z,66.47
2019-01-24T14:43:32.335Z,67.83
2019-01-24T14:45:59.576Z,80.37
2019-01-24T14:48:26.817Z,93.83
2019-01-24T14:50:54.012Z,99.43
2019-01-24T14:53:21.644Z,96.93
2019-01-24T14:55:48.888Z,79.33
2019-01-24T14:58:16.128Z,69.90
2019-01-24T15:00:53.236Z,63.57
2019-01-24T15:03:20.473Z,95.90
2019-01-24T15:05:48.079Z,69.83
2019-01-24T15:08:15.422Z,75.97
2019-01-24T15:10:43.001Z,69.67
2019-01-24T15:13:10.596Z,67.30
2019-01-24T15:15:37.818Z,66.23
2019-01-24T15:18:05.175Z,62.37
2019-01-24T15:20:32.382Z,77.00
2019-01-24T15:22:59.842Z,90.20
2019-01-24T15:25:27.080Z,73.13
2019-01-24T15:27:54.324Z,71.90
2019-01-24T15:30:22.680Z,61.70
2019-01-24T15:32:50.140Z,64.20
2019-01-24T15:35:17.370Z,68.37
2019-01-24T15:37:44.598Z,95.40
2019-01-24T15:40:20.576Z,97.10
2019-01-24T15:42:47.784Z,88.93
2019-01-24T15:45:15.643Z,74.50
2019-01-24T15:47:42.958Z,71.27
2019-01-24T15:50:11.608Z,83.13
2019-01-24T15:52:38.880Z,76.17
2019-01-24T15:55:06.549Z,67.23
2019-01-24T15:57:33.793Z,62.60
2019-01-24T16:00:01.006Z,64.80
2019-01-24T16:02:28.306Z,64.93
2019-01-24T16:04:55.513Z,75.77
2019-01-24T16:07:22.922Z,92.37
2019-01-24T16:09:50.175Z,84.53
2019-01-24T16:12:17.384Z,81.80
2019-01-24T16:14:44.649Z,90.37
2019-01-24T16:17:11.897Z,82.67
2019-01-24T16:19:39.143Z,80.07
2019-01-24T16:22:06.379Z,58.03
2019-01-24T16:24:33.616Z,67.07
2019-01-24T16:27:00.863Z,74.23
2019-01-24T16:29:28.077Z,61.27
2019-01-24T16:31:55.316Z,69.80
2019-01-24T16:34:22.694Z,87.13
2019-01-24T16:36:49.976Z,89.17
2019-01-24T16:39:17.165Z,72.83
2019-01-24T16:41:44.445Z,65.47
2019-01-24T16:44:11.673Z,62.83
2019-01-24T16:46:38.887Z,65.90
2019-01-24T16:49:06.132Z,64.37
2019-01-24T16:51:33.459Z,65.30
2019-01-24T16:54:00.750Z,64.47
2019-01-24T16:56:27.982Z,100.63
2019-01-24T16:58:55.270Z,87.17
2019-01-24T17:01:22.863Z,87.97
2019-01-24T17:03:50.114Z,94.60
2019-01-24T17:06:17.705Z,94.07
2019-01-24T17:08:46.175Z,99.33
2019-01-24T17:11:13.380Z,77.10
2019-01-24T17:13:40.631Z,89.77
2019-01-24T17:16:07.959Z,83.40
2019-01-24T17:18:35.165Z,70.10
2019-01-24T17:21:03.184Z,60.00
2019-01-24T17:23:30.414Z,55.20
2019-01-24T17:25:57.641Z,60.17
2019-01-24T17:28:24.857Z,56.40
2019-01-24T17:30:52.165Z,73.73
2019-01-24T17:33:19.678Z,58.13
2019-01-24T17:35:46.924Z,81.87
2019-01-24T17:38:15.483Z,84.13
2019-01-24T17:40:42.939Z,72.80
2019-01-24T17:43:10.548Z,70.10
2019-01-24T17:45:37.837Z,80.87
2019-01-24T17:48:05.689Z,77.90
2019-01-24T17:50:32.894Z,78.30
2019-01-24T17:53:00.219Z,66.87
2019-01-24T17:55:35.649Z,59.13
2019-01-24T17:58:04.100Z,67.37
2019-01-24T18:00:34.023Z,62.37
2019-01-24T18:03:01.938Z,77.83
2019-01-24T18:05:29.174Z,65.50
2019-01-24T18:07:56.398Z,74.50
2019-01-24T18:10:24.366Z,78.90
2019-01-24T18:12:51.566Z,82.50
2019-01-24T18:15:21.383Z,72.47
2019-01-24T18:17:48.587Z,64.63
2019-01-24T18:20:18.289Z,77.97
2019-01-24T18:22:45.775Z,85.27
2019-01-24T18:25:12.977Z,83.73
2019-01-24T18:27:40.195Z,71.33
2019-01-24T18:30:11.479Z,90.33
2019-01-24T18:32:38.696Z,78.17
2019-01-24T18:35:06.203Z,74.80
2019-01-24T18:37:33.451Z,69.43
2019-01-24T18:40:00.727Z,57.83
2019-01-24T18:42:27.984Z,59.87
2019-01-24T18:44:55.273Z,63.27
2019-01-24T18:47:22.536Z,67.87
2019-01-24T18:49:50.092Z,64.17
2019-01-24T18:52:17.379Z,71.67
2019-01-24T18:54:44.665Z,76.80
2019-01-24T18:57:11.939Z,78.20
2019-01-24T18:59:39.271Z,65.17
2019-01-24T19:02:06.588Z,86.60
2019-01-24T19:04:34.051Z,77.77
2019-01-24T19:07:01.296Z,92.60
2019-01-24T19:09:28.570Z,86.47
2019-01-24T19:11:55.807Z,70.10
2019-01-24T19:14:23.035Z,94.27
2019-01-24T19:16:50.468Z,74.73
2019-01-24T19:19:17.696Z,98.70
2019-01-24T19:21:45.227Z,73.03
2019-01-24T19:24:12.467Z,75.33
2019-01-24T19:26:39.838Z,95.53
2019-01-24T19:29:07.080Z,72.47
2019-01-24T19:31:34.411Z,66.17
2019-01-24T19:34:01.673Z,98.87
2019-01-24T19:36:28.948Z,85.77
2019-01-24T19:38:56.184Z,77.93
2019-01-24T19:41:23.436Z,100.97
2019-01-24T19:43:50.656Z,82.77
2019-01-24T19:46:17.901Z,66.37
2019-01-24T19:48:45.118Z,68.70
2019-01-24T19:51:12.351Z,74.43
2019-01-24T19:53:39.686Z,87.10
2019-01-24T19:56:07.255Z,77.67
2019-01-24T19:58:37.547Z,101.73
2019-01-24T20:01:05.294Z,73.70
2019-01-24T20:03:33.030Z,65.93
2019-01-24T20:06:01.174Z,66.63
2019-01-24T20:08:28.755Z,63.83
2019-01-24T20:10:56.547Z,79.90
2019-01-24T20:13:24.434Z,98.47
2019-01-24T20:15:52.274Z,110.13
2019-01-24T20:18:20.500Z,88.30
2019-01-24T20:20:48.100Z,73.43
2019-01-24T20:23:16.624Z,103.53
2019-01-24T20:25:43.869Z,107.93
2019-01-24T20:28:11.155Z,106.43
2019-01-24T20:30:38.415Z,112.50
2019-01-24T20:33:05.622Z,89.87
2019-01-24T20:35:38.582Z,79.90
2019-01-24T20:38:06.745Z,83.87
2019-01-24T20:40:34.381Z,69.40
2019-01-24T20:43:02.087Z,83.50
2019-01-24T20:45:29.699Z,106.30
2019-01-24T20:47:57.469Z,97.53
2019-01-24T20:50:24.950Z,100.13
2019-01-24T20:52:52.452Z,98.83
2019-01-24T20:55:20.402Z,102.70
2019-01-24T20:57:48.123Z,92.60
2019-01-24T21:00:17.957Z,99.20
2019-01-24T21:02:45.768Z,112.80
2019-01-24T21:05:15.841Z,99.03
2019-01-24T21:07:43.119Z,98.10
2019-01-24T21:10:13.415Z,118.03
2019-01-24T21:12:40.732Z,119.80
2019-01-24T21:15:09.608Z,105.83
2019-01-24T21:17:36.847Z,107.83
2019-01-24T21:20:04.940Z,103.80
2019-01-24T21:22:32.194Z,112.27
2019-01-24T21:24:59.485Z,110.87
2019-01-24T21:27:26.732Z,104.83
2019-01-24T21:29:53.976Z,114.07
2019-01-24T21:32:21.250Z,112.27
2019-01-24T21:34:48.486Z,112.47
2019-01-24T21:37:15.708Z,113.53
2019-01-24T21:39:42.968Z,109.93
2019-01-24T21:42:10.210Z,101.07
2019-01-24T21:44:37.461Z,103.43
2019-01-24T21:47:04.743Z,118.77
2019-01-24T21:49:32.005Z,109.10
2019-01-24T21:51:59.259Z,88.43
2019-01-24T21:54:26.500Z,118.07
2019-01-24T21:56:53.756Z,95.47
2019-01-24T21:59:21.015Z,76.47
2019-01-24T22:01:48.256Z,80.03
2019-01-24T22:04:15.510Z,91.83
2019-01-24T22:06:42.748Z,104.63
2019-01-24T22:09:10.077Z,101.10
2019-01-24T22:11:37.369Z,114.80
2019-01-24T22:14:04.797Z,84.57
2019-01-24T22:16:32.044Z,118.10
2019-01-24T22:18:59.295Z,105.80
2019-01-24T22:21:26.517Z,103.53
2019-01-24T22:23:53.781Z,90.33
2019-01-24T22:26:21.005Z,113.80
2019-01-24T22:28:48.257Z,120.07
2019-01-24T22:31:15.500Z,103.57
2019-01-24T22:33:42.787Z,106.90
2019-01-24T22:36:10.021Z,101.87
2019-01-24T22:38:37.248Z,90.40
2019-01-24T22:41:04.713Z,102.53
2019-01-24T22:43:31.956Z,120.53
2019-01-24T22:45:59.189Z,116.43
2019-01-24T22:48:26.757Z,111.23
2019-01-24T22:50:54.244Z,103.60
2019-01-24T22:53:21.498Z,95.80
2019-01-24T22:55:48.752Z,109.90
2019-01-24T22:58:16.075Z,97.37
2019-01-24T23:01:02.462Z,97.17
2019-01-24T23:03:51.577Z,95.10
2019-01-24T23:06:18.961Z,93.63
2019-01-24T23:08:46.242Z,104.83
2019-01-24T23:11:13.482Z,107.10
2019-01-24T23:13:40.709Z,103.47
2019-01-24T23:16:08.010Z,111.00
2019-01-24T23:18:35.368Z,111.57
2019-01-24T23:21:02.713Z,104.10
2019-01-24T23:23:30.064Z,104.07
2019-01-24T23:25:57.305Z,107.27
2019-01-24T23:28:24.659Z,121.43
2019-01-24T23:30:51.879Z,107.37
2019-01-24T23:33:19.133Z,97.87
2019-01-24T23:35:46.349Z,79.80
2019-01-24T23:38:13.620Z,83.63
2019-01-24T23:40:40.855Z,100.20
2019-01-24T23:43:08.180Z,96.90
2019-01-24T23:45:35.444Z,94.20
2019-01-24T23:48:02.669Z,86.17
2019-01-24T23:50:29.990Z,88.77
2019-01-24T23:52:57.270Z,84.93
2019-01-24T23:55:24.513Z,81.30
2019-01-24T23:57:51.813Z,80.33
